Time,TemperatureF,DewpointF,PressureIn,WindDirection,WindDirectionDegrees,WindSpeedMPH,WindSpeedGustMPH,Humidity,HourlyPrecipIn,Conditions,Clouds,dailyrainin,SoftwareType,DateUTC
2013-06-30 00:01:00,65.4,57.3,30.24,NW,308,1.1,1.1,75,0.00,CLR,,0.00,WeatherDisplay:10.37,2013-06-29 23:01:00,
2013-06-30 00:06:00,65.4,57.3,30.24,WNW,302,3.0,3.0,75,0.00,CLR,,0.00,WeatherDisplay:10.37,2013-06-29 23:06:00,
2013-06-30 00:11:00,65.4,57.6,30.24,NW,310,1.1,0.0,76,0.00,CLR,,0.00,WeatherDisplay:10.37,2013-06-29 23:11:00,
2013-06-30 00:16:00,65.4,57.6,30.24,NW,314,2.3,2.3,76,0.00,CLR,,0.00,WeatherDisplay:10.37,2013-06-29 23:16:00,
2013-06-30 00:21:00,65.3,57.5,30.24,NW,314,0.0,0.0,76,0.00,CLR,,0.00,WeatherDisplay:10.37,2013-06-29 23:21:00,
2013-06-30 00:26:00,65.2,57.4,30.24,NW,314,1.1,1.1,76,0.00,CLR,,0.00,WeatherDisplay:10.37,2013-06-29 23:26:00,
2013-06-30 00:31:00,65.1,57.7,30.23,NW,307,1.1,1.1,77,0.00,CLR,,0.00,WeatherDisplay:10.37,2013-06-29 23:31:00,
2013-06-30 00:36:00,65.0,57.6,30.24,WNW,300,3.0,3.0,77,0.00,CLR,,0.00,WeatherDisplay:10.37,2013-06-29 23:36:00,
2013-06-30 00:41:00,65.0,57.6,30.24,NW,306,2.3,2.3,77,0.00,CLR,,0.00,WeatherDisplay:10.37,2013-06-29 23:41:00,
2013-06-30 00:46:00,64.9,57.9,30.24,NW,309,1.1,1.1,78,0.00,CLR,,0.00,WeatherDisplay:10.37,2013-06-29 23:46:00,
2013-06-30 00:51:00,64.9,57.9,30.24,NW,311,2.3,2.3,78,0.00,CLR,,0.00,WeatherDisplay:10.37,2013-06-29 23:51:00,
2013-06-30 00:56:00,64.8,57.8,30.24,NW,315,0.0,0.0,78,0.00,CLR,,0.00,WeatherDisplay:10.37,2013-06-29 23:56:00,
2013-06-30 01:01:00,64.8,57.8,30.24,NW,312,0.0,0.0,78,0.00,CLR,,0.00,WeatherDisplay:10.37,2013-06-30 00:01:00,
2013-06-30 01:06:00,64.7,58.0,30.24,NW,309,0.0,0.0,79,0.00,CLR,,0.00,WeatherDisplay:10.37,2013-06-30 00:06:00,
2013-06-30 01:11:00,64.8,58.1,30.24,NW,308,3.5,3.5,79,0.00,CLR,,0.00,WeatherDisplay:10.37,2013-06-30 00:11:00,
2013-06-30 01:16:00,64.8,58.1,30.24,NW,309,0.0,0.0,79,0.00,CLR,,0.00,WeatherDisplay:10.37,2013-06-30 00:16:00,
2013-06-30 01:21:00,64.8,58.1,30.24,NW,308,1.0,1.0,79,0.00,CLR,,0.00,WeatherDisplay:10.37,2013-06-30 00:21:00,
2013-06-30 01:26:00,64.8,58.1,30.24,NW,308,0.0,0.0,79,0.00,CLR,,0.00,WeatherDisplay:10.37,2013-06-30 00:26:00,
2013-06-30 01:31:00,64.7,58.0,30.23,NW,304,2.3,2.3,79,0.00,CLR,,0.00,WeatherDisplay:10.37,2013-06-30 00:31:00,
2013-06-30 01:36:00,64.7,58.4,30.23,WNW,300,2.3,2.3,80,0.00,CLR,,0.00,WeatherDisplay:10.37,2013-06-30 00:36:00,
2013-06-30 01:41:00,64.7,58.4,30.23,WNW,302,0.0,0.1,80,0.00,CLR,,0.00,WeatherDisplay:10.37,2013-06-30 00:41:00,
2013-06-30 01:46:00,64.7,58.4,30.23,WNW,302,0.0,0.0,80,0.00,CLR,,0.00,WeatherDisplay:10.37,2013-06-30 00:46:00,
2013-06-30 01:51:00,64.7,58.4,30.23,NW,305,2.3,2.3,80,0.00,CLR,,0.00,WeatherDisplay:10.37,2013-06-30 00:51:00,
2013-06-30 01:56:00,64.6,58.3,30.23,WNW,302,1.1,1.1,80,0.00,CLR,,0.00,WeatherDisplay:10.37,2013-06-30 00:56:00,
2013-06-30 02:01:00,64.6,58.3,30.23,WNW,302,2.3,2.3,80,0.00,CLR,,0.00,WeatherDisplay:10.37,2013-06-30 01:01:00,
2013-06-30 02:06:00,64.5,58.2,30.23,WNW,301,1.1,1.1,80,0.00,CLR,,0.00,WeatherDisplay:10.37,2013-06-30 01:06:00,
2013-06-30 02:11:00,64.5,58.2,30.23,NW,306,2.3,2.3,80,0.00,CLR,,0.00,WeatherDisplay:10.37,2013-06-30 01:11:00,
2013-06-30 02:16:00,64.5,58.2,30.23,NW,304,2.3,2.3,80,0.00,CLR,,0.00,WeatherDisplay:10.37,2013-06-30 01:16:00,
2013-06-30 02:21:00,64.5,58.2,30.23,NW,304,1.1,1.1,80,0.00,CLR,,0.00,WeatherDisplay:10.37,2013-06-30 01:21:00,
2013-06-30 02:26:00,64.4,58.1,30.23,NW,305,1.1,1.1,80,0.00,CLR,,0.00,WeatherDisplay:10.37,2013-06-30 01:26:00,
2013-06-30 02:31:00,64.3,58.3,30.23,NW,304,2.3,2.3,81,0.00,CLR,,0.00,WeatherDisplay:10.37,2013-06-30 01:31:00,
2013-06-30 02:36:00,64.2,57.9,30.22,WNW,300,1.0,0.0,80,0.00,CLR,,0.00,WeatherDisplay:10.37,2013-06-30 01:36:00,
2013-06-30 02:41:00,64.1,58.1,30.22,NW,309,1.1,0.0,81,0.00,CLR,,0.00,WeatherDisplay:10.37,2013-06-30 01:41:00,
2013-06-30 02:46:00,63.9,58.0,30.22,WNW,302,0.0,0.0,81,0.00,CLR,,0.00,WeatherDisplay:10.37,2013-06-30 01:46:00,
2013-06-30 02:51:00,63.5,57.9,30.22,NW,310,0.0,0.0,82,0.00,CLR,,0.00,WeatherDisplay:10.37,2013-06-30 01:51:00,
2013-06-30 02:56:00,63.3,58.0,30.22,WNW,288,1.1,1.1,83,0.00,CLR,,0.00,WeatherDisplay:10.37,2013-06-30 01:56:00,
2013-06-30 03:01:00,63.0,57.8,30.22,WNW,290,0.0,0.1,83,0.00,CLR,,0.00,WeatherDisplay:10.37,2013-06-30 02:01:00,
2013-06-30 03:06:00,62.7,57.8,30.22,NNW,335,0.0,0.0,84,0.00,CLR,,0.00,WeatherDisplay:10.37,2013-06-30 02:06:00,
2013-06-30 03:11:00,62.5,57.6,30.22,NW,316,0.0,0.0,84,0.00,CLR,,0.00,WeatherDisplay:10.37,2013-06-30 02:11:00,
2013-06-30 03:16:00,62.2,57.6,30.22,NW,315,0.0,0.0,85,0.00,CLR,,0.00,WeatherDisplay:10.37,2013-06-30 02:16:00,
2013-06-30 03:21:00,61.9,57.7,30.22,NW,311,0.0,0.0,86,0.00,CLR,,0.00,WeatherDisplay:10.37,2013-06-30 02:21:00,
2013-06-30 03:26:00,61.6,57.4,30.22,NW,315,0.0,0.0,86,0.00,CLR,,0.00,WeatherDisplay:10.37,2013-06-30 02:26:00,
2013-06-30 03:31:00,61.4,57.5,30.22,North,4,0.0,0.0,87,0.00,CLR,,0.00,WeatherDisplay:10.37,2013-06-30 02:31:00,
2013-06-30 03:36:00,61.1,57.2,30.21,North,5,0.0,0.0,87,0.00,CLR,,0.00,WeatherDisplay:10.37,2013-06-30 02:36:00,
2013-06-30 03:41:00,60.9,57.0,30.21,North,5,0.0,0.0,87,0.00,CLR,,0.00,WeatherDisplay:10.37,2013-06-30 02:41:00,
2013-06-30 03:46:00,60.6,57.0,30.21,North,5,0.0,0.0,88,0.00,CLR,,0.00,WeatherDisplay:10.37,2013-06-30 02:46:00,
2013-06-30 03:51:00,60.4,56.8,30.21,NNE,13,0.0,0.0,88,0.00,CLR,,0.00,WeatherDisplay:10.37,2013-06-30 02:51:00,
2013-06-30 03:56:00,60.1,56.8,30.21,WNW,290,1.1,1.1,89,0.00,CLR,,0.00,WeatherDisplay:10.37,2013-06-30 02:56:00,
2013-06-30 04:01:00,59.9,56.6,30.21,WNW,290,0.0,0.0,89,0.00,CLR,,0.00,WeatherDisplay:10.37,2013-06-30 03:01:00,
2013-06-30 04:06:00,59.7,56.5,30.21,WNW,290,0.0,0.0,89,0.00,CLR,,0.00,WeatherDisplay:10.37,2013-06-30 03:06:00,
2013-06-30 04:11:00,59.6,56.7,30.21,NW,311,0.0,0.0,90,0.00,CLR,,0.00,WeatherDisplay:10.37,2013-06-30 03:11:00,
2013-06-30 04:16:00,59.5,56.9,30.21,WNW,290,0.0,0.0,91,0.00,CLR,,0.00,WeatherDisplay:10.37,2013-06-30 03:16:00,
2013-06-30 04:21:00,59.4,56.8,30.21,WNW,290,1.1,1.1,91,0.00,CLR,,0.00,WeatherDisplay:10.37,2013-06-30 03:21:00,
2013-06-30 04:26:00,59.3,56.7,30.21,WNW,295,0.0,0.0,91,0.00,CLR,,0.00,WeatherDisplay:10.37,2013-06-30 03:26:00,
2013-06-30 04:31:00,59.1,56.5,30.21,WNW,296,0.0,0.0,91,0.00,CLR,,0.00,WeatherDisplay:10.37,2013-06-30 03:31:00,
2013-06-30 04:36:00,59.0,56.4,30.21,WNW,297,0.0,0.0,91,0.00,CLR,,0.00,WeatherDisplay:10.37,2013-06-30 03:36:00,
2013-06-30 04:41:00,58.8,56.2,30.21,WNW,296,0.0,0.0,91,0.00,CLR,,0.00,WeatherDisplay:10.37,2013-06-30 03:41:00,
2013-06-30 04:46:00,58.6,56.3,30.21,WNW,296,0.0,0.0,92,0.00,CLR,,0.00,WeatherDisplay:10.37,2013-06-30 03:46:00,
2013-06-30 04:51:00,58.4,56.1,30.21,North,351,0.0,0.0,92,0.00,CLR,,0.00,WeatherDisplay:10.37,2013-06-30 03:51:00,
2013-06-30 04:56:00,58.2,55.9,30.21,North,351,0.0,0.0,92,0.00,CLR,,0.00,WeatherDisplay:10.37,2013-06-30 03:56:00,
2013-06-30 05:01:00,58.0,55.7,30.21,North,352,0.0,0.0,92,0.00,CLR,,0.00,WeatherDisplay:10.37,2013-06-30 04:01:00,
2013-06-30 05:06:00,57.9,55.9,30.21,North,351,0.0,0.0,93,0.00,CLR,,0.00,WeatherDisplay:10.37,2013-06-30 04:06:00,
2013-06-30 05:11:00,57.7,55.7,30.21,North,351,0.0,0.0,93,0.00,CLR,,0.00,WeatherDisplay:10.37,2013-06-30 04:11:00,
2013-06-30 05:16:00,57.6,55.6,30.21,North,351,0.0,0.0,93,0.00,CLR,,0.00,WeatherDisplay:10.37,2013-06-30 04:16:00,
2013-06-30 05:21:00,57.6,55.6,30.21,North,351,0.0,0.0,93,0.00,CLR,,0.00,WeatherDisplay:10.37,2013-06-30 04:21:00,
2013-06-30 05:26:00,57.6,55.9,30.21,North,351,0.0,0.0,94,0.00,CLR,,0.00,WeatherDisplay:10.37,2013-06-30 04:26:00,
2013-06-30 05:31:00,57.6,55.9,30.21,North,349,0.0,0.0,94,0.00,CLR,,0.00,WeatherDisplay:10.37,2013-06-30 04:31:00,
2013-06-30 05:36:00,57.5,55.8,30.21,North,350,0.0,0.0,94,0.00,CLR,,0.00,WeatherDisplay:10.37,2013-06-30 04:36:00,
2013-06-30 05:41:00,57.5,55.8,30.21,NNW,343,0.0,0.0,94,0.00,CLR,,0.00,WeatherDisplay:10.37,2013-06-30 04:41:00,
2013-06-30 05:46:00,57.6,55.9,30.20,NNW,343,0.0,0.0,94,0.00,CLR,,0.00,WeatherDisplay:10.37,2013-06-30 04:46:00,
2013-06-30 05:51:00,57.7,56.0,30.20,NNW,344,0.0,0.0,94,0.00,CLR,,0.00,WeatherDisplay:10.37,2013-06-30 04:51:00,
2013-06-30 05:56:00,57.8,56.1,30.20,NNW,344,0.0,0.0,94,0.00,CLR,,0.00,WeatherDisplay:10.37,2013-06-30 04:56:00,
2013-06-30 06:01:00,57.9,56.2,30.20,NNW,343,0.0,0.0,94,0.00,CLR,,0.00,WeatherDisplay:10.37,2013-06-30 05:01:00,
2013-06-30 06:06:00,58.0,56.6,30.21,NE,43,0.0,0.0,95,0.00,CLR,,0.00,WeatherDisplay:10.37,2013-06-30 05:06:00,
2013-06-30 06:11:00,58.1,56.7,30.21,WNW,300,0.0,0.0,95,0.00,CLR,,0.00,WeatherDisplay:10.37,2013-06-30 05:11:00,
2013-06-30 06:16:00,58.3,56.9,30.21,NNW,339,0.0,0.0,95,0.00,CLR,,0.00,WeatherDisplay:10.37,2013-06-30 05:16:00,
2013-06-30 06:21:00,58.4,57.0,30.21,NNW,338,0.0,0.0,95,0.00,CLR,,0.00,WeatherDisplay:10.37,2013-06-30 05:21:00,
2013-06-30 06:26:00,58.6,56.9,30.21,WNW,300,0.0,0.0,94,0.00,CLR,,0.00,WeatherDisplay:10.37,2013-06-30 05:26:00,
2013-06-30 06:31:00,58.8,57.1,30.21,WNW,300,0.0,0.0,94,0.00,CLR,,0.00,WeatherDisplay:10.37,2013-06-30 05:31:00,
2013-06-30 06:36:00,59.1,57.4,30.21,WNW,300,0.0,0.0,94,0.00,CLR,,0.00,WeatherDisplay:10.37,2013-06-30 05:36:00,
2013-06-30 06:41:00,59.5,57.5,30.21,WNW,289,1.0,1.0,93,0.00,CLR,,0.00,WeatherDisplay:10.37,2013-06-30 05:41:00,
2013-06-30 06:46:00,59.7,57.4,30.21,West,281,3.5,3.5,92,0.00,CLR,,0.00,WeatherDisplay:10.37,2013-06-30 05:46:00,
2013-06-30 06:51:00,59.5,56.9,30.21,WSW,255,2.3,2.3,91,0.00,CLR,,0.00,WeatherDisplay:10.37,2013-06-30 05:51:00,
2013-06-30 06:56:00,59.3,56.7,30.21,West,266,3.5,3.5,91,0.00,CLR,,0.00,WeatherDisplay:10.37,2013-06-30 05:56:00,
2013-06-30 07:01:00,59.1,56.8,30.21,WNW,284,3.5,3.5,92,0.00,CLR,,0.00,WeatherDisplay:10.37,2013-06-30 06:01:00,
2013-06-30 07:06:00,59.3,57.3,30.21,WNW,284,0.0,0.0,93,0.00,CLR,,0.00,WeatherDisplay:10.37,2013-06-30 06:06:00,
2013-06-30 07:11:00,59.4,57.1,30.21,WNW,287,1.1,1.1,92,0.00,CLR,,0.00,WeatherDisplay:10.37,2013-06-30 06:11:00,
2013-06-30 07:16:00,59.5,57.2,30.21,West,266,2.0,2.0,92,0.00,CLR,,0.00,WeatherDisplay:10.37,2013-06-30 06:16:00,
2013-06-30 07:21:00,59.6,57.3,30.21,WNW,293,2.3,2.3,92,0.00,CLR,,0.00,WeatherDisplay:10.37,2013-06-30 06:21:00,
2013-06-30 07:26:00,59.7,57.4,30.21,WNW,284,2.3,2.3,92,0.00,CLR,,0.00,WeatherDisplay:10.37,2013-06-30 06:26:00,
2013-06-30 07:31:00,59.7,57.1,30.22,WNW,286,1.1,1.1,91,0.00,CLR,,0.00,WeatherDisplay:10.37,2013-06-30 06:31:00,
2013-06-30 07:36:00,59.6,57.0,30.21,NNE,17,3.5,3.5,91,0.00,CLR,,0.00,WeatherDisplay:10.37,2013-06-30 06:36:00,
2013-06-30 07:41:00,59.5,57.2,30.21,WNW,287,2.0,2.0,92,0.00,CLR,,0.00,WeatherDisplay:10.37,2013-06-30 06:41:00,
2013-06-30 07:46:00,59.6,57.3,30.21,NW,317,1.1,1.1,92,0.00,CLR,,0.00,WeatherDisplay:10.37,2013-06-30 06:46:00,
2013-06-30 07:51:00,59.7,57.4,30.21,NNW,328,1.1,0.0,92,0.00,CLR,,0.00,WeatherDisplay:10.37,2013-06-30 06:51:00,
2013-06-30 07:56:00,59.8,57.2,30.22,WNW,294,2.3,2.3,91,0.00,CLR,,0.00,WeatherDisplay:10.37,2013-06-30 06:56:00,
2013-06-30 08:01:00,59.9,57.3,30.22,NW,312,1.1,1.1,91,0.00,CLR,,0.00,WeatherDisplay:10.37,2013-06-30 07:01:00,
2013-06-30 08:06:00,59.9,57.3,30.22,WNW,293,1.1,1.1,91,0.00,CLR,,0.00,WeatherDisplay:10.37,2013-06-30 07:06:00,
2013-06-30 08:11:00,60.0,57.4,30.22,East,81,0.0,0.0,91,0.00,CLR,,0.00,WeatherDisplay:10.37,2013-06-30 07:11:00,
2013-06-30 08:16:00,60.2,57.6,30.22,North,7,1.1,1.1,91,0.00,CLR,,0.00,WeatherDisplay:10.37,2013-06-30 07:16:00,
2013-06-30 08:21:00,60.3,57.4,30.22,WNW,302,4.6,4.6,90,0.00,CLR,,0.00,WeatherDisplay:10.37,2013-06-30 07:21:00,
2013-06-30 08:26:00,60.3,57.4,30.22,SW,233,2.3,2.3,90,0.00,CLR,,0.00,WeatherDisplay:10.37,2013-06-30 07:26:00,
2013-06-30 08:31:00,60.4,57.5,30.22,ENE,63,2.3,2.3,90,0.00,CLR,,0.00,WeatherDisplay:10.37,2013-06-30 07:31:00,
2013-06-30 08:36:00,60.6,57.7,30.22,WNW,289,1.1,1.1,90,0.00,CLR,,0.00,WeatherDisplay:10.37,2013-06-30 07:36:00,
2013-06-30 08:41:00,60.9,57.6,30.22,NNW,343,1.1,1.1,89,0.00,CLR,,0.00,WeatherDisplay:10.37,2013-06-30 07:41:00,
2013-06-30 08:46:00,61.1,57.8,30.22,West,271,1.1,0.0,89,0.00,CLR,,0.00,WeatherDisplay:10.37,2013-06-30 07:46:00,
2013-06-30 08:51:00,61.3,58.0,30.22,WSW,253,2.3,2.3,89,0.00,CLR,,0.00,WeatherDisplay:10.37,2013-06-30 07:51:00,
2013-06-30 08:56:00,61.8,57.9,30.21,NW,308,3.5,3.5,87,0.00,CLR,,0.00,WeatherDisplay:10.37,2013-06-30 07:56:00,
2013-06-30 09:01:00,62.5,58.6,30.21,North,360,2.3,2.3,87,0.00,CLR,,0.00,WeatherDisplay:10.37,2013-06-30 08:01:00,
2013-06-30 09:06:00,63.3,59.0,30.21,East,90,1.1,1.1,86,0.00,CLR,,0.00,WeatherDisplay:10.37,2013-06-30 08:06:00,
2013-06-30 09:11:00,64.1,59.2,30.21,SW,217,1.1,1.1,84,0.00,CLR,,0.00,WeatherDisplay:10.37,2013-06-30 08:11:00,
2013-06-30 09:16:00,64.7,59.1,30.21,WNW,297,1.1,1.1,82,0.00,CLR,,0.00,WeatherDisplay:10.37,2013-06-30 08:16:00,
2013-06-30 09:21:00,65.2,58.9,30.21,NNE,13,2.3,0.0,80,0.00,CLR,,0.00,WeatherDisplay:10.37,2013-06-30 08:21:00,
2013-06-30 09:26:00,65.6,59.3,30.21,West,275,0.0,0.0,80,0.00,CLR,,0.00,WeatherDisplay:10.37,2013-06-30 08:26:00,
2013-06-30 09:31:00,65.9,59.2,30.21,NW,307,3.5,3.5,79,0.00,CLR,,0.00,WeatherDisplay:10.37,2013-06-30 08:31:00,
2013-06-30 09:36:00,66.1,59.0,30.21,WNW,289,1.1,1.1,78,0.00,CLR,,0.00,WeatherDisplay:10.37,2013-06-30 08:36:00,
2013-06-30 09:41:00,66.5,59.1,30.20,WSW,246,2.3,2.3,77,0.00,CLR,,0.00,WeatherDisplay:10.37,2013-06-30 08:41:00,
2013-06-30 09:46:00,67.1,59.6,30.20,NNW,333,2.3,2.3,77,0.00,CLR,,0.00,WeatherDisplay:10.37,2013-06-30 08:46:00,
2013-06-30 09:51:00,67.6,59.4,30.20,West,277,2.3,2.3,75,0.00,CLR,,0.00,WeatherDisplay:10.37,2013-06-30 08:51:00,
2013-06-30 09:56:00,67.7,59.5,30.20,West,278,1.1,1.1,75,0.00,CLR,,0.00,WeatherDisplay:10.37,2013-06-30 08:56:00,
2013-06-30 10:01:00,68.4,59.8,30.20,East,80,4.0,4.0,74,0.00,CLR,,0.00,WeatherDisplay:10.37,2013-06-30 09:01:00,
2013-06-30 10:06:00,68.9,59.9,30.20,WNW,283,3.5,3.5,73,0.00,CLR,,0.00,WeatherDisplay:10.37,2013-06-30 09:06:00,
2013-06-30 10:11:00,69.1,60.1,30.19,West,274,2.3,2.3,73,0.00,CLR,,0.00,WeatherDisplay:10.37,2013-06-30 09:11:00,
2013-06-30 10:16:00,69.8,60.4,30.19,NE,37,2.3,2.3,72,0.00,CLR,,0.00,WeatherDisplay:10.37,2013-06-30 09:16:00,
2013-06-30 10:21:00,70.0,60.6,30.19,ESE,120,3.5,3.5,72,0.00,CLR,,0.00,WeatherDisplay:10.37,2013-06-30 09:21:00,
2013-06-30 10:26:00,70.8,61.3,30.19,West,280,1.1,1.1,72,0.00,CLR,,0.00,WeatherDisplay:10.37,2013-06-30 09:26:00,
2013-06-30 10:31:00,71.6,61.3,30.19,NE,43,3.5,3.5,70,0.00,CLR,,0.00,WeatherDisplay:10.37,2013-06-30 09:31:00,
2013-06-30 10:36:00,72.0,60.9,30.19,NW,304,3.5,3.5,68,0.00,CLR,,0.00,WeatherDisplay:10.37,2013-06-30 09:36:00,
2013-06-30 10:41:00,72.3,61.1,30.19,WNW,283,2.3,2.3,68,0.00,CLR,,0.00,WeatherDisplay:10.37,2013-06-30 09:41:00,
2013-06-30 10:46:00,72.4,60.8,30.19,NNE,33,3.5,3.5,67,0.00,CLR,,0.00,WeatherDisplay:10.37,2013-06-30 09:46:00,
2013-06-30 10:51:00,72.8,60.8,30.18,WSW,240,3.5,3.5,66,0.00,CLR,,0.00,WeatherDisplay:10.37,2013-06-30 09:51:00,
2013-06-30 10:56:00,73.3,61.7,30.18,West,272,3.0,3.0,67,0.00,CLR,,0.00,WeatherDisplay:10.37,2013-06-30 09:56:00,
2013-06-30 11:01:00,73.8,61.7,30.18,North,11,2.3,2.3,66,0.00,CLR,,0.00,WeatherDisplay:10.37,2013-06-30 10:01:00,
2013-06-30 11:06:00,73.9,61.0,30.17,WNW,294,3.5,3.5,64,0.00,CLR,,0.00,WeatherDisplay:10.37,2013-06-30 10:06:00,
2013-06-30 11:11:00,73.9,61.0,30.17,WSW,243,3.0,3.0,64,0.00,CLR,,0.00,WeatherDisplay:10.37,2013-06-30 10:11:00,
2013-06-30 11:16:00,74.4,61.4,30.17,SSE,167,2.0,2.0,64,0.00,CLR,,0.00,WeatherDisplay:10.37,2013-06-30 10:16:00,
2013-06-30 11:21:00,74.3,59.5,30.17,North,11,3.5,3.5,60,0.00,CLR,,0.00,WeatherDisplay:10.37,2013-06-30 10:21:00,
2013-06-30 11:26:00,74.6,59.3,30.17,WNW,285,3.5,3.5,59,0.00,CLR,,0.00,WeatherDisplay:10.37,2013-06-30 10:26:00,
2013-06-30 11:31:00,74.8,60.4,30.17,West,280,2.3,2.3,61,0.00,CLR,,0.00,WeatherDisplay:10.37,2013-06-30 10:31:00,
2013-06-30 11:36:00,75.3,60.0,30.17,West,278,5.8,5.8,59,0.00,CLR,,0.00,WeatherDisplay:10.37,2013-06-30 10:36:00,
2013-06-30 11:41:00,74.9,58.6,30.17,WSW,250,3.5,3.5,57,0.00,CLR,,0.00,WeatherDisplay:10.37,2013-06-30 10:41:00,
2013-06-30 11:46:00,74.7,59.9,30.16,NNW,335,3.5,3.5,60,0.00,CLR,,0.00,WeatherDisplay:10.37,2013-06-30 10:46:00,
2013-06-30 11:51:00,74.8,60.0,30.16,WSW,240,3.5,3.5,60,0.00,CLR,,0.00,WeatherDisplay:10.37,2013-06-30 10:51:00,
2013-06-30 11:56:00,74.7,59.9,30.16,NNE,13,3.0,3.0,60,0.00,CLR,,0.00,WeatherDisplay:10.37,2013-06-30 10:56:00,
2013-06-30 12:01:00,74.4,59.6,30.16,WNW,297,4.6,4.6,60,0.00,CLR,,0.00,WeatherDisplay:10.37,2013-06-30 11:01:00,
2013-06-30 12:06:00,74.2,59.4,30.16,WNW,297,1.1,1.1,60,0.00,CLR,,0.00,WeatherDisplay:10.37,2013-06-30 11:06:00,
2013-06-30 12:11:00,74.4,59.6,30.15,West,271,5.8,5.8,60,0.00,CLR,,0.00,WeatherDisplay:10.37,2013-06-30 11:11:00,
2013-06-30 12:16:00,74.9,59.6,30.15,NNW,345,4.6,4.6,59,0.00,CLR,,0.00,WeatherDisplay:10.37,2013-06-30 11:16:00,
2013-06-30 12:21:00,75.9,59.6,30.15,NNW,329,4.0,4.0,57,0.00,CLR,,0.00,WeatherDisplay:10.37,2013-06-30 11:21:00,
2013-06-30 12:26:00,76.1,59.3,30.15,West,278,3.5,3.5,56,0.00,CLR,,0.00,WeatherDisplay:10.37,2013-06-30 11:26:00,
2013-06-30 12:31:00,76.0,59.2,30.15,West,281,3.5,3.5,56,0.00,CLR,,0.00,WeatherDisplay:10.37,2013-06-30 11:31:00,
2013-06-30 12:36:00,76.5,59.6,30.15,ESE,118,5.8,5.8,56,0.00,CLR,,0.00,WeatherDisplay:10.37,2013-06-30 11:36:00,
2013-06-30 12:41:00,77.0,60.6,30.15,West,280,3.0,3.0,57,0.00,CLR,,0.00,WeatherDisplay:10.37,2013-06-30 11:41:00,
2013-06-30 12:46:00,77.1,59.2,30.15,WNW,297,3.5,3.5,54,0.00,CLR,,0.00,WeatherDisplay:10.37,2013-06-30 11:46:00,
2013-06-30 12:51:00,77.2,59.3,30.14,North,5,3.5,3.5,54,0.00,CLR,,0.00,WeatherDisplay:10.37,2013-06-30 11:51:00,
2013-06-30 12:56:00,77.5,58.5,30.14,SSW,205,5.0,5.0,52,0.00,CLR,,0.00,WeatherDisplay:10.37,2013-06-30 11:56:00,
2013-06-30 13:01:00,77.8,59.3,30.14,East,101,4.0,4.0,53,0.00,CLR,,0.00,WeatherDisplay:10.37,2013-06-30 12:01:00,
2013-06-30 13:06:00,77.8,58.8,30.14,WNW,291,3.5,3.5,52,0.00,CLR,,0.00,WeatherDisplay:10.37,2013-06-30 12:06:00,
2013-06-30 13:11:00,78.1,59.0,30.14,WNW,300,3.5,3.5,52,0.00,CLR,,0.00,WeatherDisplay:10.37,2013-06-30 12:11:00,
2013-06-30 13:16:00,78.2,59.1,30.14,WSW,255,3.5,3.5,52,0.00,CLR,,0.00,WeatherDisplay:10.37,2013-06-30 12:16:00,
2013-06-30 13:21:00,77.7,58.1,30.14,South,179,3.5,3.5,51,0.00,CLR,,0.00,WeatherDisplay:10.37,2013-06-30 12:21:00,
2013-06-30 13:26:00,77.9,57.8,30.14,NE,56,7.0,7.0,50,0.00,CLR,,0.00,WeatherDisplay:10.37,2013-06-30 12:26:00,
2013-06-30 13:31:00,78.0,58.4,30.13,NW,307,4.6,4.6,51,0.00,CLR,,0.00,WeatherDisplay:10.37,2013-06-30 12:31:00,
2013-06-30 13:36:00,78.1,57.9,30.13,NNW,335,5.8,5.8,50,0.00,CLR,,0.00,WeatherDisplay:10.37,2013-06-30 12:36:00,
2013-06-30 13:41:00,78.4,59.3,30.13,East,88,3.5,3.5,52,0.00,CLR,,0.00,WeatherDisplay:10.37,2013-06-30 12:41:00,
2013-06-30 13:46:00,79.3,59.6,30.13,NW,323,3.5,3.5,51,0.00,CLR,,0.00,WeatherDisplay:10.37,2013-06-30 12:46:00,
2013-06-30 13:51:00,79.6,58.8,30.13,NNW,333,3.5,3.5,49,0.00,CLR,,0.00,WeatherDisplay:10.37,2013-06-30 12:51:00,
2013-06-30 13:56:00,79.0,59.3,30.13,NNE,13,4.6,4.6,51,0.00,CLR,,0.00,WeatherDisplay:10.37,2013-06-30 12:56:00,
2013-06-30 14:01:00,79.2,59.5,30.12,NNW,329,4.6,4.6,51,0.00,CLR,,0.00,WeatherDisplay:10.37,2013-06-30 13:01:00,
2013-06-30 14:06:00,80.1,59.8,30.12,ESE,120,5.0,5.0,50,0.00,CLR,,0.00,WeatherDisplay:10.37,2013-06-30 13:06:00,
2013-06-30 14:11:00,80.1,58.6,30.12,NNW,345,5.8,5.8,48,0.00,CLR,,0.00,WeatherDisplay:10.37,2013-06-30 13:11:00,
2013-06-30 14:16:00,80.2,58.7,30.12,SSE,147,1.1,1.1,48,0.00,CLR,,0.00,WeatherDisplay:10.37,2013-06-30 13:16:00,
2013-06-30 14:21:00,80.5,60.1,30.12,ESE,102,2.3,2.3,50,0.00,CLR,,0.00,WeatherDisplay:10.37,2013-06-30 13:21:00,
2013-06-30 14:26:00,80.5,59.0,30.11,East,80,2.3,2.3,48,0.00,CLR,,0.00,WeatherDisplay:10.37,2013-06-30 13:26:00,
2013-06-30 14:31:00,80.2,58.1,30.11,NNW,330,3.5,3.5,47,0.00,CLR,,0.00,WeatherDisplay:10.37,2013-06-30 13:31:00,
2013-06-30 14:36:00,80.0,58.5,30.11,NNW,329,2.3,2.3,48,0.00,CLR,,0.00,WeatherDisplay:10.37,2013-06-30 13:36:00,
2013-06-30 14:41:00,80.5,59.0,30.11,ENE,58,3.0,3.0,48,0.00,CLR,,0.00,WeatherDisplay:10.37,2013-06-30 13:41:00,
2013-06-30 14:46:00,80.4,56.5,30.11,SSW,207,5.8,5.8,44,0.00,CLR,,0.00,WeatherDisplay:10.37,2013-06-30 13:46:00,
2013-06-30 14:51:00,80.0,57.4,30.11,North,6,3.5,3.5,46,0.00,CLR,,0.00,WeatherDisplay:10.37,2013-06-30 13:51:00,
2013-06-30 14:56:00,80.2,58.1,30.11,NNW,335,2.3,2.3,47,0.00,CLR,,0.00,WeatherDisplay:10.37,2013-06-30 13:56:00,
2013-06-30 15:01:00,80.2,57.5,30.11,North,5,5.8,5.8,46,0.00,CLR,,0.00,WeatherDisplay:10.37,2013-06-30 14:01:00,
2013-06-30 15:06:00,80.1,58.0,30.11,NW,318,3.5,3.5,47,0.00,CLR,,0.00,WeatherDisplay:10.37,2013-06-30 14:06:00,
2013-06-30 15:11:00,80.5,57.8,30.10,NE,49,2.3,2.3,46,0.00,CLR,,0.00,WeatherDisplay:10.37,2013-06-30 14:11:00,
2013-06-30 15:16:00,80.8,57.5,30.11,NNW,340,3.5,3.5,45,0.00,CLR,,0.00,WeatherDisplay:10.37,2013-06-30 14:16:00,
2013-06-30 15:21:00,80.5,57.2,30.10,WNW,301,3.5,3.5,45,0.00,CLR,,0.00,WeatherDisplay:10.37,2013-06-30 14:21:00,
2013-06-30 15:26:00,81.1,59.0,30.10,NNW,335,2.0,2.0,47,0.00,CLR,,0.00,WeatherDisplay:10.37,2013-06-30 14:26:00,
2013-06-30 15:31:00,81.4,58.6,30.10,WNW,291,2.3,2.3,46,0.00,CLR,,0.00,WeatherDisplay:10.37,2013-06-30 14:31:00,
2013-06-30 15:36:00,81.0,58.9,30.10,ENE,67,6.9,6.9,47,0.00,CLR,,0.00,WeatherDisplay:10.37,2013-06-30 14:36:00,
2013-06-30 15:41:00,80.9,58.2,30.10,West,274,3.5,3.5,46,0.00,CLR,,0.00,WeatherDisplay:10.37,2013-06-30 14:41:00,
2013-06-30 15:46:00,80.8,58.7,30.10,WNW,294,2.3,2.3,47,0.00,CLR,,0.00,WeatherDisplay:10.37,2013-06-30 14:46:00,
2013-06-30 15:51:00,80.8,59.3,30.09,ENE,61,5.8,5.8,48,0.00,CLR,,0.00,WeatherDisplay:10.37,2013-06-30 14:51:00,
2013-06-30 15:56:00,81.2,60.2,30.09,East,85,1.0,1.0,49,0.00,CLR,,0.00,WeatherDisplay:10.37,2013-06-30 14:56:00,
2013-06-30 16:01:00,81.4,57.4,30.09,NNW,331,6.9,6.9,44,0.00,CLR,,0.00,WeatherDisplay:10.37,2013-06-30 15:01:00,
2013-06-30 16:06:00,81.4,58.0,30.09,WNW,283,3.5,3.5,45,0.00,CLR,,0.00,WeatherDisplay:10.37,2013-06-30 15:06:00,
2013-06-30 16:11:00,81.2,56.6,30.09,East,93,4.0,4.0,43,0.00,CLR,,0.00,WeatherDisplay:10.37,2013-06-30 15:11:00,
2013-06-30 16:16:00,81.2,55.9,30.08,WSW,257,2.3,2.3,42,0.00,CLR,,0.00,WeatherDisplay:10.37,2013-06-30 15:16:00,
2013-06-30 16:21:00,81.2,55.3,30.08,WNW,291,3.5,3.5,41,0.00,CLR,,0.00,WeatherDisplay:10.37,2013-06-30 15:21:00,
2013-06-30 16:26:00,81.0,55.1,30.08,East,97,4.6,4.6,41,0.00,CLR,,0.00,WeatherDisplay:10.37,2013-06-30 15:26:00,
2013-06-30 16:31:00,81.0,53.7,30.08,WNW,295,4.6,4.6,39,0.00,CLR,,0.00,WeatherDisplay:10.37,2013-06-30 15:31:00,
2013-06-30 16:36:00,80.7,54.8,30.08,West,276,3.5,3.5,41,0.00,CLR,,0.00,WeatherDisplay:10.37,2013-06-30 15:36:00,
2013-06-30 16:41:00,80.5,54.6,30.08,WNW,282,7.0,7.0,41,0.00,CLR,,0.00,WeatherDisplay:10.37,2013-06-30 15:41:00,
2013-06-30 16:46:00,80.3,53.8,30.08,WNW,294,4.6,4.6,40,0.00,CLR,,0.00,WeatherDisplay:10.37,2013-06-30 15:46:00,
2013-06-30 16:51:00,80.0,54.2,30.08,West,276,4.0,4.0,41,0.00,CLR,,0.00,WeatherDisplay:10.37,2013-06-30 15:51:00,
2013-06-30 16:56:00,80.1,54.9,30.08,ESE,120,4.6,4.6,42,0.00,CLR,,0.00,WeatherDisplay:10.37,2013-06-30 15:56:00,
2013-06-30 17:01:00,80.4,56.5,30.08,NNE,26,3.5,3.5,44,0.00,CLR,,0.00,WeatherDisplay:10.37,2013-06-30 16:01:00,
2013-06-30 17:06:00,80.2,56.3,30.08,WSW,246,3.5,3.5,44,0.00,CLR,,0.00,WeatherDisplay:10.37,2013-06-30 16:06:00,
2013-06-30 17:11:00,79.9,55.4,30.08,WNW,297,3.5,3.5,43,0.00,CLR,,0.00,WeatherDisplay:10.37,2013-06-30 16:11:00,
2013-06-30 17:16:00,79.6,55.8,30.08,WNW,293,4.6,4.6,44,0.00,CLR,,0.00,WeatherDisplay:10.37,2013-06-30 16:16:00,
2013-06-30 17:21:00,79.5,56.3,30.08,WNW,283,5.8,5.8,45,0.00,CLR,,0.00,WeatherDisplay:10.37,2013-06-30 16:21:00,
2013-06-30 17:26:00,79.0,55.8,30.08,NW,315,4.6,4.6,45,0.00,CLR,,0.00,WeatherDisplay:10.37,2013-06-30 16:26:00,
2013-06-30 17:31:00,79.3,57.3,30.08,NW,319,2.3,2.3,47,0.00,CLR,,0.00,WeatherDisplay:10.37,2013-06-30 16:31:00,
2013-06-30 17:36:00,79.5,57.5,30.08,NW,307,6.9,6.9,47,0.00,CLR,,0.00,WeatherDisplay:10.37,2013-06-30 16:36:00,
2013-06-30 17:41:00,79.5,57.5,30.08,SSE,165,5.8,5.8,47,0.00,CLR,,0.00,WeatherDisplay:10.37,2013-06-30 16:41:00,
2013-06-30 17:46:00,79.2,55.4,30.07,WNW,293,6.9,6.9,44,0.00,CLR,,0.00,WeatherDisplay:10.37,2013-06-30 16:46:00,
2013-06-30 17:51:00,79.1,55.3,30.07,WNW,294,3.5,3.5,44,0.00,CLR,,0.00,WeatherDisplay:10.37,2013-06-30 16:51:00,
2013-06-30 17:56:00,79.0,56.5,30.07,West,269,3.5,3.5,46,0.00,CLR,,0.00,WeatherDisplay:10.37,2013-06-30 16:56:00,
2013-06-30 18:01:00,79.1,55.9,30.07,WNW,288,5.8,5.8,45,0.00,CLR,,0.00,WeatherDisplay:10.37,2013-06-30 17:01:00,
2013-06-30 18:06:00,78.8,55.0,30.07,NW,308,3.5,3.5,44,0.00,CLR,,0.00,WeatherDisplay:10.37,2013-06-30 17:06:00,
2013-06-30 18:11:00,78.8,55.7,30.07,SW,220,4.6,4.6,45,0.00,CLR,,0.00,WeatherDisplay:10.37,2013-06-30 17:11:00,
2013-06-30 18:16:00,78.5,54.8,30.07,NNW,333,4.0,4.0,44,0.00,CLR,,0.00,WeatherDisplay:10.37,2013-06-30 17:16:00,
2013-06-30 18:21:00,78.1,55.6,30.07,NW,307,3.5,3.5,46,0.00,CLR,,0.00,WeatherDisplay:10.37,2013-06-30 17:21:00,
2013-06-30 18:26:00,77.9,55.5,30.07,WNW,289,3.5,3.5,46,0.00,CLR,,0.00,WeatherDisplay:10.37,2013-06-30 17:26:00,
2013-06-30 18:31:00,77.9,54.2,30.07,NW,309,4.6,4.6,44,0.00,CLR,,0.00,WeatherDisplay:10.37,2013-06-30 17:31:00,
2013-06-30 18:36:00,77.6,54.6,30.07,NNW,340,5.8,5.8,45,0.00,CLR,,0.00,WeatherDisplay:10.37,2013-06-30 17:36:00,
2013-06-30 18:41:00,77.1,54.1,30.06,WNW,294,5.8,5.8,45,0.00,CLR,,0.00,WeatherDisplay:10.37,2013-06-30 17:41:00,
2013-06-30 18:46:00,76.9,53.9,30.06,NW,304,3.5,3.5,45,0.00,CLR,,0.00,WeatherDisplay:10.37,2013-06-30 17:46:00,
2013-06-30 18:51:00,76.8,54.5,30.07,WNW,284,4.6,4.6,46,0.00,CLR,,0.00,WeatherDisplay:10.37,2013-06-30 17:51:00,
2013-06-30 18:56:00,76.6,56.0,30.07,West,270,4.0,4.0,49,0.00,CLR,,0.00,WeatherDisplay:10.37,2013-06-30 17:56:00,
2013-06-30 19:01:00,76.2,55.1,30.06,NW,318,9.2,9.2,48,0.00,CLR,,0.00,WeatherDisplay:10.37,2013-06-30 18:01:00,
2013-06-30 19:06:00,75.9,55.4,30.06,NW,308,3.5,3.5,49,0.00,CLR,,0.00,WeatherDisplay:10.37,2013-06-30 18:06:00,
2013-06-30 19:11:00,75.5,55.6,30.07,WNW,300,3.5,3.5,50,0.00,CLR,,0.00,WeatherDisplay:10.37,2013-06-30 18:11:00,
2013-06-30 19:16:00,74.8,54.9,30.07,West,276,4.6,4.6,50,0.00,CLR,,0.00,WeatherDisplay:10.37,2013-06-30 18:16:00,
2013-06-30 19:21:00,74.6,55.3,30.06,NNW,342,3.5,3.5,51,0.00,CLR,,0.00,WeatherDisplay:10.37,2013-06-30 18:21:00,
2013-06-30 19:26:00,74.4,55.1,30.07,WNW,300,3.5,3.5,51,0.00,CLR,,0.00,WeatherDisplay:10.37,2013-06-30 18:26:00,
2013-06-30 19:31:00,73.9,55.2,30.07,WNW,295,5.8,5.8,52,0.00,CLR,,0.00,WeatherDisplay:10.37,2013-06-30 18:31:00,
2013-06-30 19:36:00,73.4,55.2,30.06,South,174,3.5,3.5,53,0.00,CLR,,0.00,WeatherDisplay:10.37,2013-06-30 18:36:00,
2013-06-30 19:41:00,72.8,55.2,30.07,NW,315,3.5,3.5,54,0.00,CLR,,0.00,WeatherDisplay:10.37,2013-06-30 18:41:00,
2013-06-30 19:46:00,72.2,55.1,30.07,NW,315,3.5,3.5,55,0.00,CLR,,0.00,WeatherDisplay:10.37,2013-06-30 18:46:00,
2013-06-30 19:51:00,71.7,55.7,30.06,WNW,296,3.5,3.5,57,0.00,CLR,,0.00,WeatherDisplay:10.37,2013-06-30 18:51:00,
2013-06-30 19:56:00,71.3,55.3,30.07,WSW,245,3.5,3.5,57,0.00,CLR,,0.00,WeatherDisplay:10.37,2013-06-30 18:56:00,
2013-06-30 20:01:00,70.9,55.4,30.07,WSW,258,2.0,2.0,58,0.00,CLR,,0.00,WeatherDisplay:10.37,2013-06-30 19:01:00,
2013-06-30 20:06:00,70.6,55.1,30.07,SSW,205,3.5,3.5,58,0.00,CLR,,0.00,WeatherDisplay:10.37,2013-06-30 19:06:00,
2013-06-30 20:11:00,70.3,55.3,30.07,NW,304,4.6,4.6,59,0.00,CLR,,0.00,WeatherDisplay:10.37,2013-06-30 19:11:00,
2013-06-30 20:16:00,70.0,55.0,30.06,WNW,284,2.3,2.3,59,0.00,CLR,,0.00,WeatherDisplay:10.37,2013-06-30 19:16:00,
2013-06-30 20:21:00,69.7,55.6,30.06,WNW,300,2.0,2.0,61,0.00,CLR,,0.00,WeatherDisplay:10.37,2013-06-30 19:21:00,
2013-06-30 20:26:00,69.4,55.8,30.06,West,264,2.3,2.3,62,0.00,CLR,,0.00,WeatherDisplay:10.37,2013-06-30 19:26:00,
2013-06-30 20:31:00,69.1,55.5,30.06,NW,316,2.3,2.3,62,0.00,CLR,,0.00,WeatherDisplay:10.37,2013-06-30 19:31:00,
2013-06-30 20:36:00,68.8,55.7,30.06,West,281,3.5,3.5,63,0.00,CLR,,0.00,WeatherDisplay:10.37,2013-06-30 19:36:00,
2013-06-30 20:41:00,68.6,55.9,30.06,WNW,284,3.5,3.5,64,0.00,CLR,,0.00,WeatherDisplay:10.37,2013-06-30 19:41:00,
2013-06-30 20:46:00,68.4,55.7,30.06,SE,136,1.1,0.0,64,0.00,CLR,,0.00,WeatherDisplay:10.37,2013-06-30 19:46:00,
2013-06-30 20:51:00,68.1,55.9,30.06,WNW,291,3.5,3.5,65,0.00,CLR,,0.00,WeatherDisplay:10.37,2013-06-30 19:51:00,
2013-06-30 20:56:00,67.9,55.7,30.06,WNW,285,3.5,3.5,65,0.00,CLR,,0.00,WeatherDisplay:10.37,2013-06-30 19:56:00,
2013-06-30 21:01:00,67.8,55.6,30.06,West,263,1.1,1.3,65,0.00,CLR,,0.00,WeatherDisplay:10.37,2013-06-30 20:01:00,
2013-06-30 21:06:00,67.6,55.4,30.06,SSW,195,3.5,3.5,65,0.00,CLR,,0.00,WeatherDisplay:10.37,2013-06-30 20:06:00,
2013-06-30 21:11:00,67.4,55.2,30.06,NNW,335,2.3,0.0,65,0.00,CLR,,0.00,WeatherDisplay:10.37,2013-06-30 20:11:00,
2013-06-30 21:16:00,67.2,55.0,30.06,NW,318,2.3,2.3,65,0.00,CLR,,0.00,WeatherDisplay:10.37,2013-06-30 20:16:00,
2013-06-30 21:21:00,67.1,54.9,30.06,SSE,153,2.3,2.3,65,0.00,CLR,,0.00,WeatherDisplay:10.37,2013-06-30 20:21:00,
2013-06-30 21:26:00,66.9,55.2,30.07,West,276,3.5,3.5,66,0.00,CLR,,0.00,WeatherDisplay:10.37,2013-06-30 20:26:00,
2013-06-30 21:31:00,66.7,55.0,30.07,West,269,4.6,4.6,66,0.00,CLR,,0.00,WeatherDisplay:10.37,2013-06-30 20:31:00,
2013-06-30 21:36:00,66.5,55.6,30.07,SSW,200,3.5,3.5,68,0.00,CLR,,0.00,WeatherDisplay:10.37,2013-06-30 20:36:00,
2013-06-30 21:41:00,66.3,55.4,30.07,West,276,1.1,1.1,68,0.00,CLR,,0.00,WeatherDisplay:10.37,2013-06-30 20:41:00,
2013-06-30 21:46:00,66.1,55.6,30.07,WSW,253,4.6,4.6,69,0.00,CLR,,0.00,WeatherDisplay:10.37,2013-06-30 20:46:00,
2013-06-30 21:51:00,65.8,56.1,30.07,WNW,283,2.3,2.3,71,0.00,CLR,,0.00,WeatherDisplay:10.37,2013-06-30 20:51:00,
2013-06-30 21:56:00,65.4,56.1,30.08,WNW,290,3.5,3.5,72,0.00,CLR,,0.00,WeatherDisplay:10.37,2013-06-30 20:56:00,
2013-06-30 22:01:00,65.1,55.8,30.08,WNW,284,3.5,3.5,72,0.00,CLR,,0.00,WeatherDisplay:10.37,2013-06-30 21:01:00,
2013-06-30 22:06:00,64.7,55.8,30.08,West,259,2.3,2.3,73,0.00,CLR,,0.00,WeatherDisplay:10.37,2013-06-30 21:06:00,
2013-06-30 22:11:00,64.4,55.6,30.08,NW,311,3.5,3.5,73,0.00,CLR,,0.00,WeatherDisplay:10.37,2013-06-30 21:11:00,
2013-06-30 22:16:00,64.0,55.2,30.08,SSW,201,4.6,4.6,73,0.00,CLR,,0.00,WeatherDisplay:10.37,2013-06-30 21:16:00,
2013-06-30 22:21:00,63.6,55.2,30.08,WNW,294,3.5,3.5,74,0.00,CLR,,0.00,WeatherDisplay:10.37,2013-06-30 21:21:00,
2013-06-30 22:26:00,63.2,54.8,30.08,West,263,3.5,3.5,74,0.00,CLR,,0.00,WeatherDisplay:10.37,2013-06-30 21:26:00,
2013-06-30 22:31:00,62.7,54.3,30.08,WSW,255,3.5,3.5,74,0.00,CLR,,0.00,WeatherDisplay:10.37,2013-06-30 21:31:00,
2013-06-30 22:36:00,62.3,54.3,30.08,WNW,287,3.5,3.5,75,0.00,CLR,,0.00,WeatherDisplay:10.37,2013-06-30 21:36:00,
2013-06-30 22:41:00,62.0,54.0,30.08,North,11,3.5,3.5,75,0.00,CLR,,0.00,WeatherDisplay:10.37,2013-06-30 21:41:00,
2013-06-30 22:46:00,61.8,53.8,30.09,NW,323,4.6,4.6,75,0.00,CLR,,0.00,WeatherDisplay:10.37,2013-06-30 21:46:00,
2013-06-30 22:51:00,61.5,53.5,30.09,West,274,3.5,3.5,75,0.00,CLR,,0.00,WeatherDisplay:10.37,2013-06-30 21:51:00,
2013-06-30 22:56:00,61.3,52.9,30.09,SW,228,5.8,5.8,74,0.00,CLR,,0.00,WeatherDisplay:10.37,2013-06-30 21:56:00,
2013-06-30 23:01:00,61.1,52.7,30.09,West,259,3.5,3.5,74,0.00,CLR,,0.00,WeatherDisplay:10.37,2013-06-30 22:01:00,
2013-06-30 23:06:00,60.9,52.6,30.08,West,265,3.5,3.5,74,0.00,CLR,,0.00,WeatherDisplay:10.37,2013-06-30 22:06:00,
2013-06-30 23:11:00,60.7,52.4,30.09,WNW,290,3.5,3.5,74,0.00,CLR,,0.00,WeatherDisplay:10.37,2013-06-30 22:11:00,
2013-06-30 23:16:00,60.5,52.2,30.08,WNW,294,3.5,3.5,74,0.00,CLR,,0.00,WeatherDisplay:10.37,2013-06-30 22:16:00,
2013-06-30 23:21:00,60.3,52.3,30.08,WNW,297,2.3,2.3,75,0.00,CLR,,0.00,WeatherDisplay:10.37,2013-06-30 22:21:00,
2013-06-30 23:26:00,60.0,52.1,30.08,West,266,3.5,3.5,75,0.00,CLR,,0.00,WeatherDisplay:10.37,2013-06-30 22:26:00,
2013-06-30 23:31:00,59.8,51.9,30.08,WNW,291,3.5,3.5,75,0.00,CLR,,0.00,WeatherDisplay:10.37,2013-06-30 22:31:00,
2013-06-30 23:36:00,59.7,52.1,30.08,WNW,300,2.3,2.3,76,0.00,CLR,,0.00,WeatherDisplay:10.37,2013-06-30 22:36:00,
2013-06-30 23:41:00,59.4,51.8,30.08,SSW,201,2.3,2.3,76,0.00,CLR,,0.00,WeatherDisplay:10.37,2013-06-30 22:41:00,
2013-06-30 23:46:00,59.3,52.1,30.08,SSW,208,2.3,2.3,77,0.00,CLR,,0.00,WeatherDisplay:10.37,2013-06-30 22:46:00,
2013-06-30 23:51:00,59.0,51.8,30.08,West,278,2.3,0.0,77,0.00,CLR,,0.00,WeatherDisplay:10.37,2013-06-30 22:51:00,
2013-06-30 23:56:00,59.0,51.8,30.08,NW,319,3.5,3.5,77,0.00,CLR,,0.00,WeatherDisplay:10.37,2013-06-30 22:56:00,